createdAt,value
2017-12-03T00:00:11.375Z,102162.70
2017-12-03T00:02:37.801Z,102157.47
2017-12-03T00:05:03.979Z,102154.41
2017-12-03T00:07:30.229Z,102153.96
2017-12-03T00:09:56.657Z,102150.91
2017-12-03T00:12:22.842Z,102154.42
2017-12-03T00:14:49.217Z,102153.53
2017-12-03T00:17:15.406Z,102150.47
2017-12-03T00:19:41.606Z,102151.78
2017-12-03T00:22:07.935Z,102139.99
2017-12-03T00:24:34.117Z,102135.17
2017-12-03T00:27:00.305Z,102129.91
2017-12-03T00:29:26.629Z,102130.80
2017-12-03T00:31:52.807Z,102120.73
2017-12-03T00:34:18.997Z,102122.49
2017-12-03T00:36:45.246Z,102118.98
2017-12-03T00:39:11.658Z,102114.64
2017-12-03T00:41:37.846Z,102118.13
2017-12-03T00:44:04.183Z,102115.95
2017-12-03T00:46:30.356Z,102112.42
2017-12-03T00:48:56.544Z,102112.44
2017-12-03T00:51:22.864Z,102114.18
2017-12-03T00:53:49.060Z,102107.64
2017-12-03T00:56:15.254Z,102103.28
2017-12-03T00:58:41.509Z,102104.14
2017-12-03T01:01:07.944Z,102101.50
2017-12-03T01:03:34.139Z,102092.77
2017-12-03T01:06:00.745Z,102091.44
2017-12-03T01:08:26.953Z,102084.47
2017-12-03T01:10:53.140Z,102080.11
2017-12-03T01:13:19.496Z,102080.52
2017-12-03T01:15:45.740Z,102073.11
2017-12-03T01:18:11.980Z,102064.37
2017-12-03T01:20:38.277Z,102065.69
2017-12-03T01:23:04.463Z,102075.30
2017-12-03T01:25:30.672Z,102066.99
2017-12-03T01:27:56.942Z,102065.23
2017-12-03T01:30:23.142Z,102065.69
2017-12-03T01:32:49.329Z,102069.58
2017-12-03T01:35:15.575Z,102058.68
2017-12-03T01:37:41.773Z,102059.98
2017-12-03T01:40:07.960Z,102058.66
2017-12-03T01:42:34.204Z,102056.05
2017-12-03T01:45:00.385Z,102052.53
2017-12-03T01:47:26.578Z,102047.74
2017-12-03T01:49:52.834Z,102051.66
2017-12-03T01:52:19.015Z,102047.28
2017-12-03T01:54:45.212Z,102042.06
2017-12-03T01:57:11.545Z,102038.56
2017-12-03T01:59:37.982Z,102036.83
2017-12-03T02:02:04.187Z,102039.01
2017-12-03T02:04:30.507Z,102037.27
2017-12-03T02:06:56.705Z,102033.30
2017-12-03T02:09:22.975Z,102027.20
2017-12-03T02:11:49.347Z,102019.33
2017-12-03T02:14:15.658Z,102029.36
2017-12-03T02:16:41.840Z,102021.53
2017-12-03T02:19:08.401Z,102019.78
2017-12-03T02:21:34.591Z,102018.02
2017-12-03T02:24:00.792Z,102019.76
2017-12-03T02:26:27.112Z,102011.47
2017-12-03T02:28:53.340Z,102010.13
2017-12-03T02:31:19.534Z,102007.52
2017-12-03T02:33:45.850Z,102000.97
2017-12-03T02:36:12.035Z,102001.86
2017-12-03T02:38:38.234Z,101995.75
2017-12-03T02:41:04.577Z,102001.42
2017-12-03T02:43:30.758Z,101995.73
2017-12-03T02:45:56.950Z,101991.83
2017-12-03T02:48:23.191Z,101985.70
2017-12-03T02:50:49.393Z,101991.81
2017-12-03T02:53:15.814Z,101973.89
2017-12-03T02:55:42.386Z,101987.86
2017-12-03T02:58:08.862Z,101976.94
2017-12-03T03:00:35.298Z,101983.08
2017-12-03T03:03:01.619Z,101973.44
2017-12-03T03:05:27.813Z,101976.94
2017-12-03T03:07:54.286Z,101981.30
2017-12-03T03:10:20.849Z,101969.49
2017-12-03T03:12:47.036Z,101974.73
2017-12-03T03:15:13.266Z,101971.67
2017-12-03T03:17:39.526Z,101966.02
2017-12-03T03:20:05.952Z,101964.67
2017-12-03T03:22:32.134Z,101955.51
2017-12-03T03:24:58.527Z,101955.94
2017-12-03T03:27:24.819Z,101948.50
2017-12-03T03:29:51.246Z,101952.44
2017-12-03T03:32:17.489Z,101951.11
2017-12-03T03:34:43.701Z,101941.03
2017-12-03T03:37:09.930Z,101945.44
2017-12-03T03:39:36.271Z,101939.30
2017-12-03T03:42:02.468Z,101938.88
2017-12-03T03:44:28.954Z,101936.70
2017-12-03T03:46:55.201Z,101932.31
2017-12-03T03:49:21.374Z,101931.87
2017-12-03T03:51:47.806Z,101924.88
2017-12-03T03:54:14.149Z,101925.33
2017-12-03T03:56:40.383Z,101915.30
2017-12-03T03:59:06.570Z,101923.59
2017-12-03T04:01:33.143Z,101921.39
2017-12-03T04:03:59.358Z,101920.52
2017-12-03T04:06:25.544Z,101925.34
2017-12-03T04:08:52.195Z,101928.39
2017-12-03T04:11:18.399Z,101920.97
2017-12-03T04:13:44.584Z,101922.27
2017-12-03T04:16:11.193Z,101915.27
2017-12-03T04:18:37.384Z,101915.27
2017-12-03T04:21:03.606Z,101918.77
2017-12-03T04:23:29.841Z,101908.73
2017-12-03T04:25:56.030Z,101906.09
2017-12-03T04:28:22.210Z,101899.11
2017-12-03T04:30:48.685Z,101903.88
2017-12-03T04:33:15.102Z,101901.70
2017-12-03T04:35:41.538Z,101904.32
2017-12-03T04:38:07.851Z,101889.45
2017-12-03T04:40:34.058Z,101896.88
2017-12-03T04:43:00.274Z,101894.72
2017-12-03T04:45:26.599Z,101889.52
2017-12-03T04:47:52.792Z,101891.22
2017-12-03T04:50:19.212Z,101883.38
2017-12-03T04:52:45.461Z,101884.72
2017-12-03T04:55:11.656Z,101882.09
2017-12-03T04:57:38.130Z,101879.01
2017-12-03T05:00:05.721Z,101878.14
2017-12-03T05:02:32.036Z,101882.08
2017-12-03T05:04:58.233Z,101874.66
2017-12-03T05:07:24.555Z,101872.49
2017-12-03T05:09:50.804Z,101877.27
2017-12-03T05:12:17.010Z,101883.82
2017-12-03T05:14:43.289Z,101880.30
2017-12-03T05:17:09.482Z,101875.45
2017-12-03T05:19:35.709Z,101881.98
2017-12-03T05:22:02.019Z,101872.81
2017-12-03T05:24:28.224Z,101873.69
2017-12-03T05:26:54.427Z,101868.00
2017-12-03T05:29:20.779Z,101870.63
2017-12-03T05:31:47.214Z,101858.81
2017-12-03T05:34:13.406Z,101862.74
2017-12-03T05:36:39.645Z,101866.28
2017-12-03T05:39:05.838Z,101858.39
2017-12-03T05:41:32.049Z,101857.53
2017-12-03T05:44:04.579Z,101855.33
2017-12-03T05:46:31.014Z,101848.78
2017-12-03T05:48:57.205Z,101845.27
2017-12-03T05:51:23.795Z,101836.09
2017-12-03T05:53:49.976Z,101836.98
2017-12-03T05:56:16.199Z,101838.69
2017-12-03T05:58:42.441Z,101836.97
2017-12-03T06:01:08.653Z,101834.76
2017-12-03T06:03:35.116Z,101833.46
2017-12-03T06:06:01.444Z,101825.61
2017-12-03T06:08:27.677Z,101825.61
2017-12-03T06:10:54.214Z,101833.00
2017-12-03T06:13:20.537Z,101828.66
2017-12-03T06:15:46.951Z,101827.36
2017-12-03T06:18:13.154Z,101829.55
2017-12-03T06:20:39.412Z,101827.36
2017-12-03T06:23:05.696Z,101823.87
2017-12-03T06:25:31.902Z,101828.66
2017-12-03T06:27:58.230Z,101813.37
2017-12-03T06:30:24.415Z,101823.42
2017-12-03T06:32:50.617Z,101822.09
2017-12-03T06:35:16.862Z,101822.11
2017-12-03T06:37:43.069Z,101823.87
2017-12-03T06:40:09.563Z,101823.87
2017-12-03T06:42:35.894Z,101820.77
2017-12-03T06:45:02.091Z,101815.53
2017-12-03T06:47:28.526Z,101814.62
2017-12-03T06:49:54.832Z,101810.27
2017-12-03T06:52:21.027Z,101811.12
2017-12-03T06:54:47.247Z,101806.80
2017-12-03T06:57:13.581Z,101810.73
2017-12-03T06:59:39.761Z,101800.22
2017-12-03T07:02:05.955Z,101805.48
2017-12-03T07:07:05.335Z,101802.00
2017-12-03T07:09:31.706Z,101806.81
2017-12-03T07:11:58.190Z,101808.97
2017-12-03T07:14:24.398Z,101808.97
2017-12-03T07:16:50.674Z,101813.81
2017-12-03T07:19:16.939Z,101810.72
2017-12-03T07:21:43.189Z,101805.03
2017-12-03T07:24:09.476Z,101800.25
2017-12-03T07:26:35.674Z,101805.04
2017-12-03T07:29:02.128Z,101800.25
2017-12-03T07:31:28.612Z,101806.78
2017-12-03T07:33:54.853Z,101799.36
2017-12-03T07:36:21.109Z,101800.23
2017-12-03T07:38:47.415Z,101796.31
2017-12-03T07:41:13.976Z,101792.84
2017-12-03T07:43:40.229Z,101795.03
2017-12-03T07:46:06.474Z,101791.97
2017-12-03T07:48:32.677Z,101795.43
2017-12-03T07:50:58.879Z,101803.31
2017-12-03T07:53:31.360Z,101800.23
2017-12-03T07:55:57.567Z,101795.45
2017-12-03T07:58:23.821Z,101799.39
2017-12-03T08:00:50.153Z,101800.25
2017-12-03T08:03:16.359Z,101794.13
2017-12-03T08:05:42.795Z,101790.61
2017-12-03T08:08:09.451Z,101801.52
2017-12-03T08:10:35.646Z,101799.75
2017-12-03T08:13:02.111Z,101790.15
2017-12-03T08:15:28.366Z,101785.33
2017-12-03T08:17:54.638Z,101790.13
2017-12-03T08:20:20.861Z,101785.78
2017-12-03T08:22:47.121Z,101789.28
2017-12-03T08:25:13.330Z,101786.69
2017-12-03T08:27:39.613Z,101787.11
2017-12-03T08:30:05.841Z,101788.89
2017-12-03T08:32:32.044Z,101788.43
2017-12-03T08:34:58.233Z,101785.83
2017-12-03T08:37:24.561Z,101781.88
2017-12-03T08:39:50.998Z,101782.28
2017-12-03T08:42:17.214Z,101781.84
2017-12-03T08:44:43.562Z,101780.52
2017-12-03T08:47:09.764Z,101776.59
2017-12-03T08:49:36.040Z,101775.27
2017-12-03T08:52:02.381Z,101785.32
2017-12-03T08:54:28.572Z,101790.56
2017-12-03T08:56:54.753Z,101795.80
2017-12-03T08:59:20.996Z,101806.27
2017-12-03T09:01:47.435Z,101813.70
2017-12-03T09:04:13.656Z,101818.98
2017-12-03T09:06:40.253Z,101814.62
2017-12-03T09:09:06.462Z,101822.92
2017-12-03T09:11:32.657Z,101821.14
2017-12-03T09:13:58.909Z,101812.39
2017-12-03T09:16:25.114Z,101803.62
2017-12-03T09:18:51.355Z,101804.94
2017-12-03T09:21:17.691Z,101801.88
2017-12-03T09:23:43.890Z,101794.42
2017-12-03T09:26:10.327Z,101785.58
2017-12-03T09:28:36.685Z,101783.41
2017-12-03T09:31:02.900Z,101800.02
2017-12-03T09:33:29.436Z,101794.33
2017-12-03T09:35:55.668Z,101800.84
2017-12-03T09:38:21.872Z,101793.39
2017-12-03T09:40:48.071Z,101789.92
2017-12-03T09:43:14.385Z,101793.44
2017-12-03T09:45:40.820Z,101790.82
2017-12-03T09:48:07.258Z,101798.66
2017-12-03T09:50:33.490Z,101791.23
2017-12-03T09:52:59.964Z,101790.79
2017-12-03T09:55:26.173Z,101785.97
2017-12-03T09:57:52.389Z,101783.77
2017-12-03T10:00:18.659Z,101782.92
2017-12-03T10:02:44.873Z,101784.22
2017-12-03T10:05:11.079Z,101777.61
2017-12-03T10:07:37.664Z,101773.67
2017-12-03T10:10:03.878Z,101771.47
2017-12-03T10:12:30.073Z,101772.69
2017-12-03T10:14:56.304Z,101777.44
2017-12-03T10:17:22.487Z,101775.73
2017-12-03T10:19:48.705Z,101770.09
2017-12-03T10:22:15.058Z,101770.53
2017-12-03T10:24:41.291Z,101763.08
2017-12-03T10:27:07.574Z,101763.13
2017-12-03T10:29:33.956Z,101761.83
2017-12-03T10:32:00.153Z,101771.43
2017-12-03T10:34:26.576Z,101764.05
2017-12-03T10:36:52.838Z,101769.28
2017-12-03T10:39:19.019Z,101773.70
2017-12-03T10:41:45.205Z,101774.14
2017-12-03T10:44:11.521Z,101775.03
2017-12-03T10:46:37.705Z,101772.81
2017-12-03T10:49:03.903Z,101771.47
2017-12-03T10:51:30.240Z,101763.59
2017-12-03T10:53:56.445Z,101766.22
2017-12-03T10:56:22.979Z,101766.20
2017-12-03T10:58:49.234Z,101765.30
2017-12-03T11:01:15.502Z,101765.77
2017-12-03T11:03:41.715Z,101763.09
2017-12-03T11:06:08.050Z,101769.23
2017-12-03T11:08:34.245Z,101764.84
2017-12-03T11:11:00.441Z,101759.58
2017-12-03T11:13:27.002Z,101760.86
2017-12-03T11:15:53.245Z,101755.63
2017-12-03T11:18:19.480Z,101753.82
2017-12-03T11:20:45.970Z,101751.13
2017-12-03T11:23:12.509Z,101748.03
2017-12-03T11:25:38.706Z,101753.25
2017-12-03T11:28:04.946Z,101752.78
2017-12-03T11:30:31.126Z,101759.83
2017-12-03T11:32:57.329Z,101761.16
2017-12-03T11:35:23.594Z,101759.83
2017-12-03T11:37:49.837Z,101760.69
2017-12-03T11:40:16.058Z,101752.81
2017-12-03T11:42:42.394Z,101749.31
2017-12-03T11:45:08.831Z,101747.56
2017-12-03T11:47:35.026Z,101755.02
2017-12-03T11:50:01.280Z,101756.34
2017-12-03T11:52:27.457Z,101750.67
2017-12-03T11:54:53.640Z,101747.19
2017-12-03T11:57:19.894Z,101750.70
2017-12-03T11:59:46.081Z,101759.45
2017-12-03T12:02:12.284Z,101756.84
2017-12-03T12:04:38.510Z,101748.50
2017-12-03T12:07:04.693Z,101745.40
2017-12-03T12:09:30.943Z,101746.67
2017-12-03T12:11:57.132Z,101743.94
2017-12-03T12:14:23.329Z,101739.98
2017-12-03T12:16:49.562Z,101741.27
2017-12-03T12:19:15.753Z,101735.59
2017-12-03T12:21:41.965Z,101736.03
2017-12-03T12:24:08.216Z,101729.94
2017-12-03T12:26:34.418Z,101733.89
2017-12-03T12:29:00.647Z,101731.26
2017-12-03T12:31:27.017Z,101736.11
2017-12-03T12:33:53.206Z,101733.47
2017-12-03T12:36:19.385Z,101736.58
2017-12-03T12:38:45.626Z,101743.23
2017-12-03T12:41:12.115Z,101748.94
2017-12-03T12:43:38.359Z,101743.68
2017-12-03T12:46:04.656Z,101734.05
2017-12-03T12:48:30.864Z,101742.73
2017-12-03T12:50:57.138Z,101745.34
2017-12-03T12:53:23.748Z,101739.22
2017-12-03T12:55:49.932Z,101741.38
2017-12-03T12:58:16.125Z,101744.44
2017-12-03T13:00:42.375Z,101739.19
2017-12-03T13:03:08.564Z,101734.77
2017-12-03T13:05:35.015Z,101735.19
2017-12-03T13:08:01.255Z,101734.31
2017-12-03T13:10:27.440Z,101733.02
2017-12-03T13:12:53.631Z,101726.00
2017-12-03T13:15:19.870Z,101719.02
2017-12-03T13:17:46.049Z,101726.05
2017-12-03T13:20:12.249Z,101725.15
2017-12-03T13:22:38.808Z,101723.83
2017-12-03T13:25:04.997Z,101724.73
2017-12-03T13:27:31.183Z,101722.08
2017-12-03T13:29:57.482Z,101730.39
2017-12-03T13:32:23.670Z,101723.36
2017-12-03T13:34:50.103Z,101721.64
2017-12-03T13:37:16.420Z,101722.97
2017-12-03T13:39:42.617Z,101729.52
2017-12-03T13:42:08.819Z,101727.31
2017-12-03T13:44:35.092Z,101722.45
2017-12-03T13:47:01.285Z,101724.20
2017-12-03T13:49:27.485Z,101725.48
2017-12-03T13:51:53.727Z,101724.10
2017-12-03T13:54:19.957Z,101721.05
2017-12-03T13:56:46.139Z,101731.11
2017-12-03T13:59:12.430Z,101723.20
2017-12-03T14:01:38.610Z,101724.48
2017-12-03T14:04:04.855Z,101726.66
2017-12-03T14:06:31.418Z,101738.94
2017-12-03T14:08:57.885Z,101735.92
2017-12-03T14:11:24.507Z,101742.55
2017-12-03T14:13:50.768Z,101748.25
2017-12-03T14:16:16.975Z,101744.38
2017-12-03T14:18:43.212Z,101732.98
2017-12-03T14:21:09.524Z,101750.05
2017-12-03T14:23:35.763Z,101742.14
2017-12-03T14:26:02.005Z,101754.83
2017-12-03T14:28:28.320Z,101754.41
2017-12-03T14:30:54.842Z,101751.39
2017-12-03T14:33:21.019Z,101757.48
2017-12-03T14:35:47.279Z,101753.50
2017-12-03T14:38:13.532Z,101754.77
2017-12-03T14:40:39.723Z,101755.70
2017-12-03T14:43:06.030Z,101761.38
2017-12-03T14:45:32.269Z,101760.93
2017-12-03T14:47:58.518Z,101755.26
2017-12-03T14:50:25.018Z,101758.35
2017-12-03T14:52:51.226Z,101767.56
2017-12-03T14:55:17.416Z,101763.21
2017-12-03T14:57:43.680Z,101768.03
2017-12-03T15:00:09.878Z,101767.59
2017-12-03T15:02:36.067Z,101769.73
2017-12-03T15:05:02.316Z,101775.88
2017-12-03T15:10:00.325Z,101779.37
2017-12-03T15:12:26.658Z,101781.13
2017-12-03T15:14:53.080Z,101783.76
2017-12-03T15:17:19.301Z,101787.75
2017-12-03T15:19:45.542Z,101793.45
2017-12-03T15:22:11.934Z,101790.85
2017-12-03T15:24:39.137Z,101791.30
2017-12-03T15:27:05.407Z,101790.89
2017-12-03T15:29:31.864Z,101789.16
2017-12-03T15:31:58.065Z,101792.64
2017-12-03T15:34:24.320Z,101791.73
2017-12-03T15:36:50.529Z,101796.97
2017-12-03T15:39:16.785Z,101801.34
2017-12-03T15:41:43.028Z,101808.36
2017-12-03T15:44:09.474Z,101806.16
2017-12-03T15:46:35.925Z,101805.31
2017-12-03T15:49:02.195Z,101809.22
2017-12-03T15:51:28.500Z,101813.16
2017-12-03T15:53:54.755Z,101811.42
2017-12-03T15:56:20.957Z,101810.52
2017-12-03T15:58:47.176Z,101814.47
2017-12-03T16:01:13.529Z,101811.41
2017-12-03T16:03:39.713Z,101819.29
2017-12-03T16:06:05.922Z,101818.86
2017-12-03T16:08:32.157Z,101827.17
2017-12-03T16:10:58.603Z,101825.00
2017-12-03T16:13:24.790Z,101818.89
2017-12-03T16:15:51.033Z,101823.30
2017-12-03T16:18:17.227Z,101821.95
2017-12-03T16:20:43.416Z,101831.14
2017-12-03T16:23:10.038Z,101834.22
2017-12-03T16:25:36.233Z,101839.47
2017-12-03T16:28:02.434Z,101836.41
2017-12-03T16:30:28.767Z,101832.88
2017-12-03T16:32:55.001Z,101819.80
2017-12-03T16:35:21.208Z,101822.84
2017-12-03T16:37:47.458Z,101822.38
2017-12-03T16:40:13.673Z,101825.90
2017-12-03T16:42:39.878Z,101819.32
2017-12-03T16:45:06.354Z,101817.13
2017-12-03T16:47:32.553Z,101821.56
2017-12-03T16:49:58.744Z,101822.42
2017-12-03T16:52:25.004Z,101825.92
2017-12-03T16:54:51.421Z,101824.59
2017-12-03T16:57:17.604Z,101825.48
2017-12-03T16:59:43.939Z,101830.74
2017-12-03T17:02:10.142Z,101835.55
2017-12-03T17:04:36.330Z,101834.23
2017-12-03T17:07:02.594Z,101846.05
2017-12-03T17:09:28.784Z,101839.04
2017-12-03T17:11:55.206Z,101848.69
2017-12-03T17:14:21.555Z,101850.41
2017-12-03T17:16:47.744Z,101849.52
2017-12-03T17:19:14.182Z,101849.53
2017-12-03T17:21:40.489Z,101849.52
2017-12-03T17:24:06.756Z,101845.16
2017-12-03T17:26:33.038Z,101847.34
2017-12-03T17:28:59.360Z,101851.72
2017-12-03T17:31:25.554Z,101850.84
2017-12-03T17:33:51.740Z,101850.81
2017-12-03T17:36:18.157Z,101855.22
2017-12-03T17:38:44.341Z,101849.55
2017-12-03T17:41:10.760Z,101856.54
2017-12-03T17:43:36.994Z,101857.41
2017-12-03T17:46:03.209Z,101854.80
2017-12-03T17:48:29.640Z,101857.39
2017-12-03T17:50:55.942Z,101862.19
2017-12-03T17:53:22.210Z,101865.27
2017-12-03T17:55:48.406Z,101861.79
2017-12-03T17:58:14.625Z,101868.78
2017-12-03T18:00:40.869Z,101862.66
2017-12-03T18:03:07.050Z,101863.98
2017-12-03T18:05:33.241Z,101863.53
2017-12-03T18:07:59.622Z,101865.30
2017-12-03T18:10:25.806Z,101860.47
2017-12-03T18:12:52.247Z,101858.28
2017-12-03T18:15:18.484Z,101857.47
2017-12-03T18:17:44.678Z,101869.23
2017-12-03T18:20:10.858Z,101875.84
2017-12-03T18:22:37.085Z,101874.94
2017-12-03T18:25:03.434Z,101874.09
2017-12-03T18:27:29.625Z,101871.03
2017-12-03T18:29:55.873Z,101867.09
2017-12-03T18:32:22.302Z,101863.59
2017-12-03T18:34:48.518Z,101861.83
2017-12-03T18:37:14.896Z,101869.28
2017-12-03T18:39:41.132Z,101866.64
2017-12-03T18:42:07.390Z,101870.55
2017-12-03T18:44:33.687Z,101872.72
2017-12-03T18:46:59.946Z,101873.18
2017-12-03T18:49:26.192Z,101874.48
2017-12-03T18:51:52.486Z,101873.58
2017-12-03T18:54:18.734Z,101868.33
2017-12-03T18:56:44.973Z,101880.17
2017-12-03T18:59:11.269Z,101878.84
2017-12-03T19:01:37.517Z,101871.42
2017-12-03T19:04:03.771Z,101878.84
2017-12-03T19:06:30.137Z,101885.84
2017-12-03T19:08:56.374Z,101886.27
2017-12-03T19:11:22.585Z,101889.39
2017-12-03T19:13:48.903Z,101881.47
2017-12-03T19:16:15.154Z,101885.84
2017-12-03T19:18:41.393Z,101884.07
2017-12-03T19:21:07.682Z,101893.69
2017-12-03T19:23:33.874Z,101891.09
2017-12-03T19:26:00.163Z,101881.45
2017-12-03T19:28:26.431Z,101874.88
2017-12-03T19:30:52.626Z,101873.59
2017-12-03T19:33:18.836Z,101870.50
2017-12-03T19:35:45.186Z,101869.59
2017-12-03T19:38:11.379Z,101870.06
2017-12-03T19:40:38.099Z,101877.95
2017-12-03T19:43:04.354Z,101877.97
2017-12-03T19:45:30.870Z,101878.39
2017-12-03T19:47:57.069Z,101879.30
2017-12-03T19:50:23.394Z,101882.80
2017-12-03T19:52:49.826Z,101879.28
2017-12-03T19:55:16.031Z,101883.64
2017-12-03T19:57:42.275Z,101881.92
2017-12-03T20:00:08.522Z,101888.02
2017-12-03T20:02:34.723Z,101885.00
2017-12-03T20:05:01.044Z,101888.94
2017-12-03T20:07:27.222Z,101889.80
2017-12-03T20:09:53.411Z,101898.98
2017-12-03T20:12:19.662Z,101900.30
2017-12-03T20:14:46.108Z,101897.27
2017-12-03T20:17:12.279Z,101895.09
2017-12-03T20:19:38.851Z,101895.09
2017-12-03T20:22:05.030Z,101897.73
2017-12-03T20:24:31.313Z,101892.06
2017-12-03T20:26:57.595Z,101885.06
2017-12-03T20:29:23.790Z,101883.77
2017-12-03T20:31:49.984Z,101889.90
2017-12-03T20:34:16.562Z,101891.19
2017-12-03T20:36:42.805Z,101887.27
2017-12-03T20:39:09.133Z,101883.73
2017-12-03T20:41:35.432Z,101874.56
2017-12-03T20:44:01.675Z,101876.30
2017-12-03T20:46:28.211Z,101879.84
2017-12-03T20:48:54.539Z,101870.62
2017-12-03T20:51:20.734Z,101871.46
2017-12-03T20:53:47.201Z,101880.64
2017-12-03T20:56:13.518Z,101876.28
2017-12-03T20:58:39.963Z,101879.34
2017-12-03T21:01:06.179Z,101889.83
2017-12-03T21:03:32.415Z,101892.89
2017-12-03T21:05:58.604Z,101893.33
2017-12-03T21:08:24.797Z,101880.64
2017-12-03T21:10:51.032Z,101882.83
2017-12-03T21:13:17.236Z,101876.70
2017-12-03T21:15:43.441Z,101875.84
2017-12-03T21:18:09.804Z,101877.16
2017-12-03T21:20:35.992Z,101867.50
2017-12-03T21:23:02.415Z,101870.57
2017-12-03T21:25:28.657Z,101876.24
2017-12-03T21:27:54.881Z,101877.09
2017-12-03T21:30:21.089Z,101874.91
2017-12-03T21:32:47.416Z,101899.42
2017-12-03T21:35:13.602Z,101923.51
2017-12-03T21:37:39.801Z,101921.31
2017-12-03T21:40:06.066Z,101913.84
2017-12-03T21:42:32.282Z,101909.91
2017-12-03T21:44:58.474Z,101898.55
2017-12-03T21:47:24.802Z,101902.03
2017-12-03T21:49:50.994Z,101908.63
2017-12-03T21:52:17.193Z,101913.88
2017-12-03T21:54:43.538Z,101916.94
2017-12-03T21:57:10.006Z,101918.27
2017-12-03T21:59:36.199Z,101916.09
2017-12-03T22:02:02.435Z,101924.84
2017-12-03T22:04:28.642Z,101914.79
2017-12-03T22:06:54.833Z,101915.20
2017-12-03T22:09:21.058Z,101909.48
2017-12-03T22:11:47.236Z,101912.16
2017-12-03T22:14:13.413Z,101917.82
2017-12-03T22:16:39.706Z,101913.45
2017-12-03T22:19:05.898Z,101916.94
2017-12-03T22:21:32.439Z,101916.47
2017-12-03T22:23:58.699Z,101915.59
2017-12-03T22:26:24.900Z,101913.86
2017-12-03T22:28:51.109Z,101909.05
2017-12-03T22:31:17.337Z,101905.11
2017-12-03T22:33:43.524Z,101901.62
2017-12-03T22:36:09.705Z,101903.38
2017-12-03T22:38:36.036Z,101915.66
2017-12-03T22:41:02.230Z,101918.72
2017-12-03T22:43:28.421Z,101923.95
2017-12-03T22:45:54.740Z,101930.53
2017-12-03T22:48:20.933Z,101926.62
2017-12-03T22:50:47.383Z,101923.98
2017-12-03T22:53:13.942Z,101927.47
2017-12-03T22:55:40.197Z,101926.59
2017-12-03T22:58:06.384Z,101925.30
2017-12-03T23:00:32.799Z,101920.02
2017-12-03T23:02:58.990Z,101927.05
2017-12-03T23:05:25.409Z,101928.78
2017-12-03T23:07:51.773Z,101930.56
2017-12-03T23:10:17.946Z,101923.57
2017-12-03T23:12:44.129Z,101917.00
2017-12-03T23:15:10.699Z,101916.12
2017-12-03T23:17:36.938Z,101915.66
2017-12-03T23:20:03.111Z,101926.17
2017-12-03T23:22:29.674Z,101929.23
2017-12-03T23:24:56.102Z,101930.54
2017-12-03T23:27:22.513Z,101935.39
2017-12-03T23:29:48.874Z,101928.80
2017-12-03T23:32:15.054Z,101937.12
2017-12-03T23:34:41.292Z,101937.09
2017-12-03T23:37:07.667Z,101943.22
2017-12-03T23:39:34.145Z,101940.59
2017-12-03T23:42:00.385Z,101940.61
2017-12-03T23:44:26.939Z,101940.60
2017-12-03T23:46:53.194Z,101940.17
2017-12-03T23:49:19.391Z,101944.11
2017-12-03T23:51:45.901Z,101945.44
2017-12-03T23:54:12.102Z,101955.49
2017-12-03T23:56:38.297Z,101955.47
2017-12-03T23:59:04.858Z,101950.23
